sensor_id;sensor_type;location;lat;lon;timestamp;temperature;humidity
74540;SHT31;66042;51.090;-115.340;2023-04-07T00:01:43;22.81;15.43
74540;SHT31;66042;51.090;-115.340;2023-04-07T00:04:10;22.40;15.85
74540;SHT31;66042;51.090;-115.340;2023-04-07T00:06:36;22.80;15.95
74540;SHT31;66042;51.090;-115.340;2023-04-07T00:09:04;22.20;16.07
74540;SHT31;66042;51.090;-115.340;2023-04-07T00:11:32;22.41;16.16
74540;SHT31;66042;51.090;-115.340;2023-04-07T00:13:58;22.78;16.09
74540;SHT31;66042;51.090;-115.340;2023-04-07T00:16:26;22.81;16.03
74540;SHT31;66042;51.090;-115.340;2023-04-07T00:18:53;22.53;16.29
74540;SHT31;66042;51.090;-115.340;2023-04-07T00:21:20;22.27;16.44
74540;SHT31;66042;51.090;-115.340;2023-04-07T00:23:47;22.41;16.45
74540;SHT31;66042;51.090;-115.340;2023-04-07T00:26:14;21.79;16.68
74540;SHT31;66042;51.090;-115.340;2023-04-07T00:28:40;21.28;17.34
74540;SHT31;66042;51.090;-115.340;2023-04-07T00:31:08;20.77;17.70
74540;SHT31;66042;51.090;-115.340;2023-04-07T00:33:34;20.13;18.11
74540;SHT31;66042;51.090;-115.340;2023-04-07T00:36:01;19.27;18.50
74540;SHT31;66042;51.090;-115.340;2023-04-07T00:38:28;18.58;19.07
74540;SHT31;66042;51.090;-115.340;2023-04-07T00:40:58;18.18;19.42
74540;SHT31;66042;51.090;-115.340;2023-04-07T00:43:26;18.06;19.92
74540;SHT31;66042;51.090;-115.340;2023-04-07T00:45:53;18.36;19.90
74540;SHT31;66042;51.090;-115.340;2023-04-07T00:48:20;18.66;19.80
74540;SHT31;66042;51.090;-115.340;2023-04-07T00:50:47;18.70;19.81
74540;SHT31;66042;51.090;-115.340;2023-04-07T00:53:17;18.66;19.82
74540;SHT31;66042;51.090;-115.340;2023-04-07T00:55:45;18.51;19.90
74540;SHT31;66042;51.090;-115.340;2023-04-07T00:58:12;18.02;20.19
74540;SHT31;66042;51.090;-115.340;2023-04-07T01:00:42;17.58;20.58
74540;SHT31;66042;51.090;-115.340;2023-04-07T01:03:18;17.11;20.95
74540;SHT31;66042;51.090;-115.340;2023-04-07T01:06:00;16.58;21.40
74540;SHT31;66042;51.090;-115.340;2023-04-07T01:13:57;15.37;22.68
74540;SHT31;66042;51.090;-115.340;2023-04-07T01:19:43;14.68;23.71
74540;SHT31;66042;51.090;-115.340;2023-04-07T01:22:23;14.32;24.32
74540;SHT31;66042;51.090;-115.340;2023-04-07T01:25:41;13.96;24.78
74540;SHT31;66042;51.090;-115.340;2023-04-07T01:31:33;13.49;25.33
74540;SHT31;66042;51.090;-115.340;2023-04-07T01:34:04;13.28;25.53
74540;SHT31;66042;51.090;-115.340;2023-04-07T01:36:35;13.11;25.81
74540;SHT31;66042;51.090;-115.340;2023-04-07T01:39:02;12.95;26.21
74540;SHT31;66042;51.090;-115.340;2023-04-07T01:41:31;12.77;26.41
74540;SHT31;66042;51.090;-115.340;2023-04-07T01:43:59;12.58;26.48
74540;SHT31;66042;51.090;-115.340;2023-04-07T01:46:28;12.40;26.93
74540;SHT31;66042;51.090;-115.340;2023-04-07T01:48:55;12.20;27.17
74540;SHT31;66042;51.090;-115.340;2023-04-07T01:51:23;12.02;27.37
74540;SHT31;66042;51.090;-115.340;2023-04-07T01:53:52;11.86;27.59
74540;SHT31;66042;51.090;-115.340;2023-04-07T01:56:19;11.69;27.78
74540;SHT31;66042;51.090;-115.340;2023-04-07T01:58:46;11.50;28.08
74540;SHT31;66042;51.090;-115.340;2023-04-07T02:01:13;11.32;28.21
74540;SHT31;66042;51.090;-115.340;2023-04-07T02:06:22;11.00;28.66
74540;SHT31;66042;51.090;-115.340;2023-04-07T02:09:06;10.88;29.28
74540;SHT31;66042;51.090;-115.340;2023-04-07T02:11:38;10.74;29.59
74540;SHT31;66042;51.090;-115.340;2023-04-07T02:14:08;10.61;29.88
74540;SHT31;66042;51.090;-115.340;2023-04-07T02:16:36;10.41;30.10
74540;SHT31;66042;51.090;-115.340;2023-04-07T02:19:07;10.30;30.14
74540;SHT31;66042;51.090;-115.340;2023-04-07T02:21:34;10.21;30.35
74540;SHT31;66042;51.090;-115.340;2023-04-07T02:24:05;10.08;30.80
74540;SHT31;66042;51.090;-115.340;2023-04-07T02:26:33;9.95;30.89
74540;SHT31;66042;51.090;-115.340;2023-04-07T02:29:02;9.83;31.10
74540;SHT31;66042;51.090;-115.340;2023-04-07T02:31:30;9.68;31.39
74540;SHT31;66042;51.090;-115.340;2023-04-07T02:33:57;9.58;31.54
74540;SHT31;66042;51.090;-115.340;2023-04-07T02:36:24;9.47;31.72
74540;SHT31;66042;51.090;-115.340;2023-04-07T02:38:51;9.38;32.08
74540;SHT31;66042;51.090;-115.340;2023-04-07T02:41:19;9.29;32.53
74540;SHT31;66042;51.090;-115.340;2023-04-07T02:43:46;9.16;32.57
74540;SHT31;66042;51.090;-115.340;2023-04-07T02:46:13;9.06;32.73
74540;SHT31;66042;51.090;-115.340;2023-04-07T02:48:40;8.91;32.91
74540;SHT31;66042;51.090;-115.340;2023-04-07T02:51:07;8.82;33.39
74540;SHT31;66042;51.090;-115.340;2023-04-07T02:53:34;8.80;33.38
74540;SHT31;66042;51.090;-115.340;2023-04-07T02:56:01;8.78;33.42
74540;SHT31;66042;51.090;-115.340;2023-04-07T02:58:28;8.75;33.58
74540;SHT31;66042;51.090;-115.340;2023-04-07T03:00:55;8.69;33.70
74540;SHT31;66042;51.090;-115.340;2023-04-07T03:03:22;8.60;33.81
74540;SHT31;66042;51.090;-115.340;2023-04-07T03:05:50;8.45;34.11
74540;SHT31;66042;51.090;-115.340;2023-04-07T03:08:17;8.37;34.39
74540;SHT31;66042;51.090;-115.340;2023-04-07T03:10:44;8.35;34.70
74540;SHT31;66042;51.090;-115.340;2023-04-07T03:13:11;8.33;34.77
74540;SHT31;66042;51.090;-115.340;2023-04-07T03:15:41;8.26;34.96
74540;SHT31;66042;51.090;-115.340;2023-04-07T03:18:08;8.14;34.94
74540;SHT31;66042;51.090;-115.340;2023-04-07T03:20:36;8.07;34.90
74540;SHT31;66042;51.090;-115.340;2023-04-07T03:23:03;8.03;35.04
74540;SHT31;66042;51.090;-115.340;2023-04-07T03:25:30;7.97;35.30
74540;SHT31;66042;51.090;-115.340;2023-04-07T03:27:57;7.93;35.53
74540;SHT31;66042;51.090;-115.340;2023-04-07T03:30:25;7.84;35.62
74540;SHT31;66042;51.090;-115.340;2023-04-07T03:32:52;7.76;35.72
74540;SHT31;66042;51.090;-115.340;2023-04-07T03:35:19;7.70;35.86
74540;SHT31;66042;51.090;-115.340;2023-04-07T03:37:46;7.62;36.17
74540;SHT31;66042;51.090;-115.340;2023-04-07T03:40:14;7.54;36.23
74540;SHT31;66042;51.090;-115.340;2023-04-07T03:42:41;7.45;36.34
74540;SHT31;66042;51.090;-115.340;2023-04-07T03:45:10;7.34;36.74
74540;SHT31;66042;51.090;-115.340;2023-04-07T03:47:37;7.28;36.91
74540;SHT31;66042;51.090;-115.340;2023-04-07T03:50:05;7.20;37.06
74540;SHT31;66042;51.090;-115.340;2023-04-07T03:52:32;7.10;37.14
74540;SHT31;66042;51.090;-115.340;2023-04-07T03:54:59;6.97;37.52
74540;SHT31;66042;51.090;-115.340;2023-04-07T03:57:26;6.90;37.55
74540;SHT31;66042;51.090;-115.340;2023-04-07T03:59:53;6.85;37.76
74540;SHT31;66042;51.090;-115.340;2023-04-07T04:02:20;6.81;37.73
74540;SHT31;66042;51.090;-115.340;2023-04-07T04:04:48;6.79;37.79
74540;SHT31;66042;51.090;-115.340;2023-04-07T04:07:14;6.77;37.89
74540;SHT31;66042;51.090;-115.340;2023-04-07T04:09:42;6.72;38.24
74540;SHT31;66042;51.090;-115.340;2023-04-07T04:12:08;6.70;38.26
74540;SHT31;66042;51.090;-115.340;2023-04-07T04:14:36;6.67;38.34
74540;SHT31;66042;51.090;-115.340;2023-04-07T04:17:03;6.65;38.20
74540;SHT31;66042;51.090;-115.340;2023-04-07T04:19:30;6.63;38.25
74540;SHT31;66042;51.090;-115.340;2023-04-07T04:21:56;6.61;38.30
74540;SHT31;66042;51.090;-115.340;2023-04-07T04:24:24;6.57;38.58
74540;SHT31;66042;51.090;-115.340;2023-04-07T04:26:50;6.53;38.65
74540;SHT31;66042;51.090;-115.340;2023-04-07T04:29:17;6.48;38.79
74540;SHT31;66042;51.090;-115.340;2023-04-07T04:31:44;6.44;38.99
74540;SHT31;66042;51.090;-115.340;2023-04-07T04:34:11;6.37;39.09
74540;SHT31;66042;51.090;-115.340;2023-04-07T04:36:39;6.33;39.40
74540;SHT31;66042;51.090;-115.340;2023-04-07T04:39:06;6.28;39.49
74540;SHT31;66042;51.090;-115.340;2023-04-07T04:41:33;6.22;39.47
74540;SHT31;66042;51.090;-115.340;2023-04-07T04:44:00;6.17;39.50
74540;SHT31;66042;51.090;-115.340;2023-04-07T04:46:27;6.11;39.83
74540;SHT31;66042;51.090;-115.340;2023-04-07T04:48:54;6.03;40.04
74540;SHT31;66042;51.090;-115.340;2023-04-07T04:51:22;5.97;40.11
74540;SHT31;66042;51.090;-115.340;2023-04-07T04:53:50;5.91;40.14
74540;SHT31;66042;51.090;-115.340;2023-04-07T04:56:17;5.87;40.21
74540;SHT31;66042;51.090;-115.340;2023-04-07T04:58:45;5.84;40.32
74540;SHT31;66042;51.090;-115.340;2023-04-07T05:01:12;5.82;40.81
74540;SHT31;66042;51.090;-115.340;2023-04-07T05:03:40;5.78;41.06
74540;SHT31;66042;51.090;-115.340;2023-04-07T05:06:07;5.76;41.03
74540;SHT31;66042;51.090;-115.340;2023-04-07T05:08:34;5.72;41.12
74540;SHT31;66042;51.090;-115.340;2023-04-07T05:11:01;5.67;41.24
74540;SHT31;66042;51.090;-115.340;2023-04-07T05:13:28;5.65;41.23
74540;SHT31;66042;51.090;-115.340;2023-04-07T05:15:56;5.65;41.33
74540;SHT31;66042;51.090;-115.340;2023-04-07T05:18:23;5.63;41.51
74540;SHT31;66042;51.090;-115.340;2023-04-07T05:20:50;5.60;41.79
74540;SHT31;66042;51.090;-115.340;2023-04-07T05:23:17;5.57;41.78
74540;SHT31;66042;51.090;-115.340;2023-04-07T05:25:44;5.51;42.00
74540;SHT31;66042;51.090;-115.340;2023-04-07T05:28:11;5.44;42.18
74540;SHT31;66042;51.090;-115.340;2023-04-07T05:30:38;5.41;42.21
74540;SHT31;66042;51.090;-115.340;2023-04-07T05:33:06;5.37;41.99
74540;SHT31;66042;51.090;-115.340;2023-04-07T05:35:33;5.36;41.89
74540;SHT31;66042;51.090;-115.340;2023-04-07T05:38:00;5.32;42.12
74540;SHT31;66042;51.090;-115.340;2023-04-07T05:40:27;5.24;42.17
74540;SHT31;66042;51.090;-115.340;2023-04-07T05:42:55;5.19;42.14
74540;SHT31;66042;51.090;-115.340;2023-04-07T05:45:22;5.17;42.43
74540;SHT31;66042;51.090;-115.340;2023-04-07T05:47:48;5.14;42.49
74540;SHT31;66042;51.090;-115.340;2023-04-07T05:50:16;5.15;42.24
74540;SHT31;66042;51.090;-115.340;2023-04-07T05:52:43;5.13;42.32
74540;SHT31;66042;51.090;-115.340;2023-04-07T05:55:11;5.10;42.27
74540;SHT31;66042;51.090;-115.340;2023-04-07T05:57:38;5.11;42.21
74540;SHT31;66042;51.090;-115.340;2023-04-07T06:00:06;5.13;42.12
74540;SHT31;66042;51.090;-115.340;2023-04-07T06:02:35;5.13;42.23
74540;SHT31;66042;51.090;-115.340;2023-04-07T06:05:04;5.12;42.20
74540;SHT31;66042;51.090;-115.340;2023-04-07T06:07:32;5.11;42.27
74540;SHT31;66042;51.090;-115.340;2023-04-07T06:09:59;5.09;42.31
74540;SHT31;66042;51.090;-115.340;2023-04-07T06:12:26;5.06;42.38
74540;SHT31;66042;51.090;-115.340;2023-04-07T06:14:53;5.04;42.68
74540;SHT31;66042;51.090;-115.340;2023-04-07T06:17:21;5.03;42.82
74540;SHT31;66042;51.090;-115.340;2023-04-07T06:19:48;5.01;42.93
74540;SHT31;66042;51.090;-115.340;2023-04-07T06:22:15;4.97;43.14
74540;SHT31;66042;51.090;-115.340;2023-04-07T06:24:43;4.94;43.40
74540;SHT31;66042;51.090;-115.340;2023-04-07T06:27:10;4.91;43.60
74540;SHT31;66042;51.090;-115.340;2023-04-07T06:29:37;4.90;43.58
74540;SHT31;66042;51.090;-115.340;2023-04-07T06:32:04;4.89;43.53
74540;SHT31;66042;51.090;-115.340;2023-04-07T06:34:31;4.89;43.39
74540;SHT31;66042;51.090;-115.340;2023-04-07T06:36:59;4.87;43.47
74540;SHT31;66042;51.090;-115.340;2023-04-07T06:39:26;4.85;43.66
74540;SHT31;66042;51.090;-115.340;2023-04-07T06:41:54;4.85;43.96
74540;SHT31;66042;51.090;-115.340;2023-04-07T06:44:22;4.82;44.06
74540;SHT31;66042;51.090;-115.340;2023-04-07T06:46:49;4.76;44.40
74540;SHT31;66042;51.090;-115.340;2023-04-07T06:49:18;4.75;44.00
74540;SHT31;66042;51.090;-115.340;2023-04-07T06:51:45;4.74;43.99
74540;SHT31;66042;51.090;-115.340;2023-04-07T06:54:13;4.71;44.67
74540;SHT31;66042;51.090;-115.340;2023-04-07T06:56:40;4.69;45.12
74540;SHT31;66042;51.090;-115.340;2023-04-07T06:59:08;4.67;45.14
74540;SHT31;66042;51.090;-115.340;2023-04-07T07:01:35;4.65;45.10
74540;SHT31;66042;51.090;-115.340;2023-04-07T07:04:02;4.64;45.31
74540;SHT31;66042;51.090;-115.340;2023-04-07T07:06:32;4.62;45.30
74540;SHT31;66042;51.090;-115.340;2023-04-07T07:09:00;4.57;45.35
74540;SHT31;66042;51.090;-115.340;2023-04-07T07:11:27;4.55;45.06
74540;SHT31;66042;51.090;-115.340;2023-04-07T07:13:54;4.55;45.27
74540;SHT31;66042;51.090;-115.340;2023-04-07T07:16:21;4.52;45.28
74540;SHT31;66042;51.090;-115.340;2023-04-07T07:18:49;4.52;44.62
74540;SHT31;66042;51.090;-115.340;2023-04-07T07:21:16;4.56;44.58
74540;SHT31;66042;51.090;-115.340;2023-04-07T07:23:44;4.61;44.26
74540;SHT31;66042;51.090;-115.340;2023-04-07T07:26:11;4.64;44.64
74540;SHT31;66042;51.090;-115.340;2023-04-07T07:28:38;4.62;44.89
74540;SHT31;66042;51.090;-115.340;2023-04-07T07:31:09;4.61;44.89
74540;SHT31;66042;51.090;-115.340;2023-04-07T07:33:40;4.57;44.89
74540;SHT31;66042;51.090;-115.340;2023-04-07T07:36:10;4.55;45.12
74540;SHT31;66042;51.090;-115.340;2023-04-07T07:38:37;4.54;45.38
74540;SHT31;66042;51.090;-115.340;2023-04-07T07:41:06;4.53;45.41
74540;SHT31;66042;51.090;-115.340;2023-04-07T07:43:33;4.51;45.69
74540;SHT31;66042;51.090;-115.340;2023-04-07T07:46:02;4.48;45.47
74540;SHT31;66042;51.090;-115.340;2023-04-07T07:48:29;4.45;45.40
74540;SHT31;66042;51.090;-115.340;2023-04-07T07:50:56;4.44;45.56
74540;SHT31;66042;51.090;-115.340;2023-04-07T07:53:23;4.40;45.48
74540;SHT31;66042;51.090;-115.340;2023-04-07T07:55:53;4.39;45.51
74540;SHT31;66042;51.090;-115.340;2023-04-07T07:58:20;4.37;46.15
74540;SHT31;66042;51.090;-115.340;2023-04-07T08:00:47;4.35;45.91
74540;SHT31;66042;51.090;-115.340;2023-04-07T08:03:15;4.34;45.46
74540;SHT31;66042;51.090;-115.340;2023-04-07T08:05:44;4.34;45.38
74540;SHT31;66042;51.090;-115.340;2023-04-07T08:08:13;4.35;45.40
74540;SHT31;66042;51.090;-115.340;2023-04-07T08:10:40;4.36;45.43
74540;SHT31;66042;51.090;-115.340;2023-04-07T08:13:07;4.36;45.45
74540;SHT31;66042;51.090;-115.340;2023-04-07T08:15:35;4.36;45.60
74540;SHT31;66042;51.090;-115.340;2023-04-07T08:18:02;4.35;45.67
74540;SHT31;66042;51.090;-115.340;2023-04-07T08:20:30;4.34;45.79
74540;SHT31;66042;51.090;-115.340;2023-04-07T08:22:58;4.32;46.04
74540;SHT31;66042;51.090;-115.340;2023-04-07T08:25:29;4.29;46.35
74540;SHT31;66042;51.090;-115.340;2023-04-07T08:27:56;4.26;46.33
74540;SHT31;66042;51.090;-115.340;2023-04-07T08:30:23;4.24;45.90
74540;SHT31;66042;51.090;-115.340;2023-04-07T08:32:50;4.25;45.96
74540;SHT31;66042;51.090;-115.340;2023-04-07T08:35:17;4.25;45.98
74540;SHT31;66042;51.090;-115.340;2023-04-07T08:37:45;4.25;46.06
74540;SHT31;66042;51.090;-115.340;2023-04-07T08:40:13;4.24;46.20
74540;SHT31;66042;51.090;-115.340;2023-04-07T08:42:42;4.20;46.39
74540;SHT31;66042;51.090;-115.340;2023-04-07T08:45:13;4.18;46.16
74540;SHT31;66042;51.090;-115.340;2023-04-07T08:47:43;4.17;46.23
74540;SHT31;66042;51.090;-115.340;2023-04-07T08:50:15;4.18;46.33
74540;SHT31;66042;51.090;-115.340;2023-04-07T08:52:44;4.21;46.41
74540;SHT31;66042;51.090;-115.340;2023-04-07T08:55:18;4.21;46.53
74540;SHT31;66042;51.090;-115.340;2023-04-07T08:57:46;4.15;46.88
74540;SHT31;66042;51.090;-115.340;2023-04-07T09:00:13;4.09;47.16
74540;SHT31;66042;51.090;-115.340;2023-04-07T09:02:42;4.05;47.63
74540;SHT31;66042;51.090;-115.340;2023-04-07T09:05:10;4.03;47.26
74540;SHT31;66042;51.090;-115.340;2023-04-07T09:07:41;4.03;47.21
74540;SHT31;66042;51.090;-115.340;2023-04-07T09:10:08;4.03;47.12
74540;SHT31;66042;51.090;-115.340;2023-04-07T09:12:36;4.03;47.12
74540;SHT31;66042;51.090;-115.340;2023-04-07T09:15:07;4.04;47.18
74540;SHT31;66042;51.090;-115.340;2023-04-07T09:17:34;4.03;47.46
74540;SHT31;66042;51.090;-115.340;2023-04-07T09:20:01;4.00;47.74
74540;SHT31;66042;51.090;-115.340;2023-04-07T09:22:39;3.95;48.08
74540;SHT31;66042;51.090;-115.340;2023-04-07T09:27:58;3.92;48.09
74540;SHT31;66042;51.090;-115.340;2023-04-07T09:30:30;3.91;48.02
74540;SHT31;66042;51.090;-115.340;2023-04-07T09:32:58;3.90;48.02
74540;SHT31;66042;51.090;-115.340;2023-04-07T09:35:27;3.88;48.05
74540;SHT31;66042;51.090;-115.340;2023-04-07T09:38:03;3.86;48.21
74540;SHT31;66042;51.090;-115.340;2023-04-07T09:40:32;3.81;48.64
74540;SHT31;66042;51.090;-115.340;2023-04-07T09:43:02;3.79;48.56
74540;SHT31;66042;51.090;-115.340;2023-04-07T09:45:39;3.75;48.69
74540;SHT31;66042;51.090;-115.340;2023-04-07T09:48:07;3.74;48.55
74540;SHT31;66042;51.090;-115.340;2023-04-07T09:50:45;3.73;48.58
74540;SHT31;66042;51.090;-115.340;2023-04-07T09:53:16;3.71;48.61
74540;SHT31;66042;51.090;-115.340;2023-04-07T09:55:44;3.69;48.53
74540;SHT31;66042;51.090;-115.340;2023-04-07T09:58:13;3.69;48.62
74540;SHT31;66042;51.090;-115.340;2023-04-07T10:00:41;3.67;48.66
74540;SHT31;66042;51.090;-115.340;2023-04-07T10:03:08;3.62;49.17
74540;SHT31;66042;51.090;-115.340;2023-04-07T10:05:36;3.60;49.39
74540;SHT31;66042;51.090;-115.340;2023-04-07T10:08:05;3.56;49.77
74540;SHT31;66042;51.090;-115.340;2023-04-07T10:10:32;3.54;49.57
74540;SHT31;66042;51.090;-115.340;2023-04-07T10:13:02;3.55;49.43
74540;SHT31;66042;51.090;-115.340;2023-04-07T10:15:31;3.52;49.33
74540;SHT31;66042;51.090;-115.340;2023-04-07T10:17:58;3.51;49.37
74540;SHT31;66042;51.090;-115.340;2023-04-07T10:20:31;3.50;49.68
74540;SHT31;66042;51.090;-115.340;2023-04-07T10:23:00;3.51;49.86
74540;SHT31;66042;51.090;-115.340;2023-04-07T10:25:37;3.51;49.85
74540;SHT31;66042;51.090;-115.340;2023-04-07T10:28:06;3.51;49.95
74540;SHT31;66042;51.090;-115.340;2023-04-07T10:30:36;3.52;49.62
74540;SHT31;66042;51.090;-115.340;2023-04-07T10:33:04;3.53;50.20
74540;SHT31;66042;51.090;-115.340;2023-04-07T10:41:33;3.46;50.75
74540;SHT31;66042;51.090;-115.340;2023-04-07T10:44:07;3.45;50.79
74540;SHT31;66042;51.090;-115.340;2023-04-07T10:47:15;3.47;50.87
74540;SHT31;66042;51.090;-115.340;2023-04-07T10:52:41;3.48;50.53
74540;SHT31;66042;51.090;-115.340;2023-04-07T10:58:16;3.51;50.38
74540;SHT31;66042;51.090;-115.340;2023-04-07T11:03:30;3.51;50.45
74540;SHT31;66042;51.090;-115.340;2023-04-07T11:06:03;3.51;50.70
74540;SHT31;66042;51.090;-115.340;2023-04-07T11:08:36;3.52;51.16
74540;SHT31;66042;51.090;-115.340;2023-04-07T11:11:06;3.51;51.50
74540;SHT31;66042;51.090;-115.340;2023-04-07T11:13:45;3.50;51.33
74540;SHT31;66042;51.090;-115.340;2023-04-07T11:16:15;3.52;51.22
74540;SHT31;66042;51.090;-115.340;2023-04-07T11:18:59;3.53;50.91
74540;SHT31;66042;51.090;-115.340;2023-04-07T11:21:26;3.56;51.35
74540;SHT31;66042;51.090;-115.340;2023-04-07T11:23:52;3.57;51.33
74540;SHT31;66042;51.090;-115.340;2023-04-07T11:26:19;3.58;50.96
74540;SHT31;66042;51.090;-115.340;2023-04-07T11:33:54;3.60;51.15
74540;SHT31;66042;51.090;-115.340;2023-04-07T11:36:27;3.59;51.04
74540;SHT31;66042;51.090;-115.340;2023-04-07T11:38:56;3.60;51.10
74540;SHT31;66042;51.090;-115.340;2023-04-07T11:41:26;3.62;51.30
74540;SHT31;66042;51.090;-115.340;2023-04-07T11:44:03;3.63;51.05
74540;SHT31;66042;51.090;-115.340;2023-04-07T11:46:36;3.64;51.57
74540;SHT31;66042;51.090;-115.340;2023-04-07T11:49:26;3.64;51.76
74540;SHT31;66042;51.090;-115.340;2023-04-07T11:51:58;3.63;51.37
74540;SHT31;66042;51.090;-115.340;2023-04-07T11:54:43;3.65;51.67
74540;SHT31;66042;51.090;-115.340;2023-04-07T11:57:12;3.65;51.83
74540;SHT31;66042;51.090;-115.340;2023-04-07T11:59:40;3.66;51.96
74540;SHT31;66042;51.090;-115.340;2023-04-07T12:02:07;3.67;51.81
74540;SHT31;66042;51.090;-115.340;2023-04-07T12:04:35;3.67;51.90
74540;SHT31;66042;51.090;-115.340;2023-04-07T12:07:08;3.69;52.02
74540;SHT31;66042;51.090;-115.340;2023-04-07T12:09:36;3.70;52.00
74540;SHT31;66042;51.090;-115.340;2023-04-07T12:12:05;3.71;52.16
74540;SHT31;66042;51.090;-115.340;2023-04-07T12:14:35;3.71;52.16
74540;SHT31;66042;51.090;-115.340;2023-04-07T12:17:02;3.73;52.06
74540;SHT31;66042;51.090;-115.340;2023-04-07T12:19:30;3.77;51.88
74540;SHT31;66042;51.090;-115.340;2023-04-07T12:22:00;3.79;51.85
74540;SHT31;66042;51.090;-115.340;2023-04-07T12:24:27;3.82;52.06
74540;SHT31;66042;51.090;-115.340;2023-04-07T12:26:55;3.81;51.75
74540;SHT31;66042;51.090;-115.340;2023-04-07T12:29:23;3.81;51.73
74540;SHT31;66042;51.090;-115.340;2023-04-07T12:31:50;3.81;51.78
74540;SHT31;66042;51.090;-115.340;2023-04-07T12:34:17;3.84;51.83
74540;SHT31;66042;51.090;-115.340;2023-04-07T12:36:44;3.91;51.89
74540;SHT31;66042;51.090;-115.340;2023-04-07T12:39:11;3.98;51.62
74540;SHT31;66042;51.090;-115.340;2023-04-07T12:41:39;4.03;51.28
74540;SHT31;66042;51.090;-115.340;2023-04-07T12:44:08;4.07;51.45
74540;SHT31;66042;51.090;-115.340;2023-04-07T12:46:35;4.10;51.38
74540;SHT31;66042;51.090;-115.340;2023-04-07T12:49:03;4.13;51.21
74540;SHT31;66042;51.090;-115.340;2023-04-07T12:51:30;4.15;50.93
74540;SHT31;66042;51.090;-115.340;2023-04-07T12:54:00;4.15;51.03
74540;SHT31;66042;51.090;-115.340;2023-04-07T12:56:28;4.13;51.10
74540;SHT31;66042;51.090;-115.340;2023-04-07T12:58:56;4.11;51.22
74540;SHT31;66042;51.090;-115.340;2023-04-07T13:01:23;4.15;51.44
74540;SHT31;66042;51.090;-115.340;2023-04-07T13:03:51;4.20;51.30
74540;SHT31;66042;51.090;-115.340;2023-04-07T13:06:18;4.21;51.34
74540;SHT31;66042;51.090;-115.340;2023-04-07T13:08:45;4.20;51.28
74540;SHT31;66042;51.090;-115.340;2023-04-07T13:11:12;4.20;51.36
74540;SHT31;66042;51.090;-115.340;2023-04-07T13:13:39;4.18;51.55
74540;SHT31;66042;51.090;-115.340;2023-04-07T13:16:06;4.17;51.54
74540;SHT31;66042;51.090;-115.340;2023-04-07T13:18:34;4.15;51.67
74540;SHT31;66042;51.090;-115.340;2023-04-07T13:21:01;4.13;51.67
74540;SHT31;66042;51.090;-115.340;2023-04-07T13:23:28;4.12;51.59
74540;SHT31;66042;51.090;-115.340;2023-04-07T13:25:56;4.09;51.88
74540;SHT31;66042;51.090;-115.340;2023-04-07T13:28:23;4.10;51.91
74540;SHT31;66042;51.090;-115.340;2023-04-07T13:30:50;4.09;52.00
74540;SHT31;66042;51.090;-115.340;2023-04-07T13:33:17;4.10;51.99
74540;SHT31;66042;51.090;-115.340;2023-04-07T13:35:44;4.12;51.93
74540;SHT31;66042;51.090;-115.340;2023-04-07T13:38:11;4.12;51.92
74540;SHT31;66042;51.090;-115.340;2023-04-07T13:40:41;4.16;52.02
74540;SHT31;66042;51.090;-115.340;2023-04-07T13:43:09;4.19;51.98
74540;SHT31;66042;51.090;-115.340;2023-04-07T13:45:37;4.21;51.82
74540;SHT31;66042;51.090;-115.340;2023-04-07T13:48:03;4.25;51.67
74540;SHT31;66042;51.090;-115.340;2023-04-07T13:50:32;4.26;51.84
74540;SHT31;66042;51.090;-115.340;2023-04-07T13:53:02;4.29;52.07
74540;SHT31;66042;51.090;-115.340;2023-04-07T13:55:29;4.32;51.91
74540;SHT31;66042;51.090;-115.340;2023-04-07T13:57:56;4.37;51.73
74540;SHT31;66042;51.090;-115.340;2023-04-07T14:00:23;4.40;51.52
74540;SHT31;66042;51.090;-115.340;2023-04-07T14:02:50;4.43;51.70
74540;SHT31;66042;51.090;-115.340;2023-04-07T14:05:20;4.47;51.64
74540;SHT31;66042;51.090;-115.340;2023-04-07T14:07:47;4.50;51.49
74540;SHT31;66042;51.090;-115.340;2023-04-07T14:10:15;4.53;51.49
74540;SHT31;66042;51.090;-115.340;2023-04-07T14:12:42;4.56;51.45
74540;SHT31;66042;51.090;-115.340;2023-04-07T14:15:09;4.59;51.40
74540;SHT31;66042;51.090;-115.340;2023-04-07T14:17:36;4.62;51.40
74540;SHT31;66042;51.090;-115.340;2023-04-07T14:20:03;4.67;51.27
74540;SHT31;66042;51.090;-115.340;2023-04-07T14:22:31;4.72;51.18
74540;SHT31;66042;51.090;-115.340;2023-04-07T14:24:58;4.77;51.13
74540;SHT31;66042;51.090;-115.340;2023-04-07T14:27:26;4.81;51.21
74540;SHT31;66042;51.090;-115.340;2023-04-07T14:29:54;4.87;51.11
74540;SHT31;66042;51.090;-115.340;2023-04-07T14:32:23;4.92;50.97
74540;SHT31;66042;51.090;-115.340;2023-04-07T14:34:54;4.97;50.89
74540;SHT31;66042;51.090;-115.340;2023-04-07T14:37:21;5.03;50.86
74540;SHT31;66042;51.090;-115.340;2023-04-07T14:39:54;5.10;50.80
74540;SHT31;66042;51.090;-115.340;2023-04-07T14:42:21;5.19;50.80
74540;SHT31;66042;51.090;-115.340;2023-04-07T14:44:48;5.26;50.71
74540;SHT31;66042;51.090;-115.340;2023-04-07T14:47:15;5.34;50.37
74540;SHT31;66042;51.090;-115.340;2023-04-07T14:49:42;5.41;50.24
74540;SHT31;66042;51.090;-115.340;2023-04-07T14:52:09;5.49;50.09
74540;SHT31;66042;51.090;-115.340;2023-04-07T14:54:38;5.58;49.88
74540;SHT31;66042;51.090;-115.340;2023-04-07T14:57:05;5.66;49.68
74540;SHT31;66042;51.090;-115.340;2023-04-07T14:59:32;5.75;49.68
74540;SHT31;66042;51.090;-115.340;2023-04-07T15:01:59;5.82;49.43
74540;SHT31;66042;51.090;-115.340;2023-04-07T15:04:27;5.89;49.34
74540;SHT31;66042;51.090;-115.340;2023-04-07T15:06:53;5.98;49.21
74540;SHT31;66042;51.090;-115.340;2023-04-07T15:09:21;6.06;49.02
74540;SHT31;66042;51.090;-115.340;2023-04-07T15:11:48;6.13;48.93
74540;SHT31;66042;51.090;-115.340;2023-04-07T15:14:15;6.19;48.66
74540;SHT31;66042;51.090;-115.340;2023-04-07T15:16:42;6.25;48.79
74540;SHT31;66042;51.090;-115.340;2023-04-07T15:19:11;6.32;48.68
74540;SHT31;66042;51.090;-115.340;2023-04-07T15:21:38;6.39;48.54
74540;SHT31;66042;51.090;-115.340;2023-04-07T15:24:05;6.45;48.32
74540;SHT31;66042;51.090;-115.340;2023-04-07T15:26:32;6.53;48.05
74540;SHT31;66042;51.090;-115.340;2023-04-07T15:29:00;6.60;47.92
74540;SHT31;66042;51.090;-115.340;2023-04-07T15:31:27;6.68;47.69
74540;SHT31;66042;51.090;-115.340;2023-04-07T15:33:54;6.76;47.67
74540;SHT31;66042;51.090;-115.340;2023-04-07T15:36:21;6.85;47.38
74540;SHT31;66042;51.090;-115.340;2023-04-07T15:38:48;6.96;47.31
74540;SHT31;66042;51.090;-115.340;2023-04-07T15:41:15;7.03;47.13
74540;SHT31;66042;51.090;-115.340;2023-04-07T15:43:43;7.10;46.54
74540;SHT31;66042;51.090;-115.340;2023-04-07T15:46:10;7.16;46.74